Latest Coastal Weather Observations for Cape Nelson

IDS60701

Issued at 10:35 am CST Thursday 28 August 2014 (issued every 10 minutes, with the page automatically refreshed every 10 minutes)

About coastal observations | Map of coastal stations | Coastal observations for SA | Marine services | Other Formats
Station Details ID: 090184 Name: CAPE NELSON LIGHTHOUSE Lat: -38.43 Lon: 141.54 Height: 45.4 m
Data from the previous 72 hours. | See also: Recent months at Cape Nelson
Date/Time
CST
Temp

°C
Wind Pressure Rain
since 9am
mm
Weather Cloud Vis
km
Sea
Height
m
Swell
Dir
 
Speed
knots
Gust
knots
hPa Trend Height
m
Period
s
Dir
28/10:30am 14.0 NNW 5 6 1029.0 - 0.0 - - - - - - -
28/10:00am 13.6 NNE 4 5 1029.1 - 0.0 - - - - - - -
28/09:30am 13.1 NE 3 4 1029.2 - 0.0 - - - - - - -
28/09:00am 12.8 NE 3 4 1029.2 - 0.0 - - - - - - -
28/08:30am 12.9 E 2 3 1029.2 - 0.2 - - - - - - -
28/08:00am 10.3 CALM 0 0 1029.0 - 0.2 - - - - - - -
28/07:30am 7.8 CALM 0 0 1028.9 - 0.2 - - - - - - -
28/07:00am 7.5 NE 1 3 1028.7 - 0.2 - - - - - - -
28/06:30am 6.9 NNE 3 3 1028.3 - 0.2 - - - - - - -
28/06:00am 7.0 CALM 0 3 1028.1 - 0.2 - - - - - - -
28/05:30am 7.3 N 3 4 1027.9 - 0.2 - - - - - - -
28/05:00am 7.0 N 3 5 1027.8 - 0.2 - - - - - - -
28/04:30am 7.3 N 5 6 1027.6 - 0.2 - - - - - - -
28/04:00am 8.2 NNE 2 4 1027.7 - 0.2 - - - - - - -
28/03:30am 9.2 NNW 3 5 1027.5 - 0.2 - - - - - - -
28/03:00am 9.4 N 6 7 1027.4 - 0.2 - - - - - - -
28/02:30am 9.4 N 7 8 1027.6 - 0.2 - - - - - - -
28/02:00am 10.0 N 8 10 1027.6 - 0.2 - - - - - - -
28/01:30am 9.9 N 8 10 1027.8 - 0.2 - - - - - - -
28/01:00am 9.6 NNE 7 9 1028.0 - 0.2 - - - - - - -
28/12:30am 9.4 N 7 8 1028.3 - 0.2 - - - - - - -
28/12:00am 8.7 N 7 8 1028.5 - 0.2 - - - - - - -
 
Date/Time
CST
Temp

°C
Wind Pressure Rain
since 9am
mm
Weather Cloud Vis
km
Sea
Height
m
Swell
Dir
 
Speed
knots
Gust
knots
hPa Trend Height
m
Period
s
Dir
27/11:30pm 8.7 NNE 7 8 1028.4 - 0.2 - - - - - - -
27/11:00pm 8.3 NNE 6 8 1028.7 - 0.2 - - - - - - -
27/10:30pm 8.2 NNE 5 5 1028.8 - 0.2 - - - - - - -
27/10:00pm 8.4 CALM 0 0 1028.8 - 0.2 - - - - - - -
27/09:30pm 9.2 E 2 3 1028.7 - 0.2 - - - - - - -
27/09:00pm 10.0 CALM 0 0 1028.6 - 0.2 - - - - - - -
27/08:30pm 11.3 SE 1 4 1028.5 - 0.2 - - - - - - -
27/08:00pm 12.7 S 5 8 1028.6 - 0.2 - - - - - - -
27/07:30pm 12.9 SE 4 7 1028.5 - 0.2 - - - - - - -
27/07:00pm 13.0 NE 4 6 1028.1 - 0.2 - - - - - - -
27/06:30pm 13.1 NNE 4 6 1027.8 - 0.2 - - - - - - -
27/06:00pm 13.3 NNW 5 7 1027.7 - 0.2 - - - - - - -
27/05:30pm 13.6 WNW 6 8 1027.5 - 0.2 - - - - - - -
27/05:00pm 13.9 W 6 9 1027.4 - 0.2 - - - - - - -
27/04:30pm 14.1 W 6 7 1027.2 - 0.2 - - - - - - -
27/04:00pm 14.9 W 5 7 1027.1 - 0.2 - - - - - - -
27/03:30pm 15.5 W 6 9 1027.0 - 0.2 - - - - - - -
27/03:00pm 15.7 WNW 6 8 1026.8 - 0.2 - - - - - - -
27/02:30pm 15.9 W 8 11 1026.7 - 0.2 - - - - - - -
27/02:00pm 15.4 W 10 12 1026.8 - 0.2 - - - - - - -
27/01:30pm 15.2 W 10 12 1026.8 - 0.2 - - - - - - -
27/01:00pm 15.9 W 8 10 1026.9 - 0.2 - - - - - - -
27/12:30pm 16.6 WNW 7 10 1027.2 - 0.2 - - - - - - -
27/12:00pm 16.6 NW 8 11 1027.6 - 0.0 - - - - - - -
27/11:30am 16.1 WNW 7 10 1027.9 - 0.0 - - - - - - -
27/11:00am 16.6 NW 9 11 1027.9 - 0.0 - - - - - - -
27/10:30am 16.0 NNW 9 14 1028.0 - 0.0 - - - - - - -
27/10:00am 14.9 NNW 7 10 1028.2 - 0.0 - - - - - - -
27/09:30am 13.4 NNW 6 7 1028.2 - 0.0 - - - - - - -
27/09:00am 12.6 W 6 7 1028.0 - 0.0 - - - - - - -
27/08:30am 13.0 NNW 7 8 1027.8 - 0.2 - - - - - - -
27/08:00am 11.3 N 6 7 1027.6 - 0.2 - - - - - - -
27/07:30am 9.6 NNW 7 8 1027.3 - 0.2 - - - - - - -
27/07:00am 7.9 NNW 6 8 1027.0 - 0.2 - - - - - - -
27/06:30am 7.1 N 7 7 1026.4 - 0.2 - - - - - - -
27/06:00am 7.4 N 6 7 1026.2 - 0.2 - - - - - - -
27/05:30am 7.7 N 6 7 1026.0 - 0.2 - - - - - - -
27/05:00am 7.1 NNW 6 8 1026.0 - 0.2 - - - - - - -
27/04:30am 7.7 NNW 6 7 1025.9 - 0.2 - - - - - - -
27/04:00am 8.2 N 7 8 1025.9 - 0.2 - - - - - - -
27/03:30am 8.4 N 6 7 1025.8 - 0.2 - - - - - - -
27/03:00am 9.0 N 7 8 1025.8 - 0.0 - - - - - - -
27/02:30am 9.0 N 8 9 1025.9 - 0.0 - - - - - - -
27/02:00am 8.6 N 8 9 1026.1 - 0.0 - - - - - - -
27/01:30am 8.4 NNE 7 8 1026.0 - 0.0 - - - - - - -
27/01:00am 8.3 NNE 6 7 1026.1 - 0.0 - - - - - - -
27/12:30am 8.5 NNE 5 6 1026.3 - 0.0 - - - - - - -
27/12:00am 8.2 NNE 4 5 1026.4 - 0.0 - - - - - - -
 
Date/Time
CST
Temp

°C
Wind Pressure Rain
since 9am
mm
Weather Cloud Vis
km
Sea
Height
m
Swell
Dir
 
Speed
knots
Gust
knots
hPa Trend Height
m
Period
s
Dir
26/11:30pm 9.0 NNE 4 5 1026.3 - 0.0 - - - - - - -
26/11:00pm 9.0 NNE 4 4 1026.5 - 0.0 - - - - - - -
26/10:30pm 9.8 NE 5 5 1026.5 - 0.0 - - - - - - -
26/10:00pm 10.4 NE 4 4 1026.6 - 0.0 - - - - - - -
26/09:30pm 11.4 NE 5 6 1026.7 - 0.0 - - - - - - -
26/09:00pm 12.2 NE 3 5 1026.6 - 0.0 - - - - - - -
26/08:30pm 12.9 ENE 8 11 1026.5 - 0.0 - - - - - - -
26/08:00pm 12.9 ENE 8 12 1026.5 - 0.0 - - - - - - -
26/07:30pm 12.6 E 7 9 1026.5 - 0.0 - - - - - - -
26/07:00pm 12.8 E 8 11 1026.5 - 0.0 - - - - - - -
26/06:30pm 12.9 E 9 12 1026.5 - 0.0 - - - - - - -
26/06:00pm 12.9 E 10 13 1026.0 - 0.0 - - - - - - -
26/05:30pm 12.9 E 12 15 1025.8 - 0.0 - - - - - - -
26/05:00pm 13.2 E 13 16 1025.6 - 0.0 - - - - - - -
26/04:30pm 13.4 E 11 14 1025.8 - 0.0 - - - - - - -
26/04:00pm 13.8 E 11 14 1025.6 - 0.0 - - - - - - -
26/03:30pm 14.1 E 9 13 1025.9 - 0.0 - - - - - - -
26/03:00pm 14.3 E 11 15 1026.0 - 0.0 - - - - - - -
26/02:30pm 14.6 E 12 15 1026.2 - 0.0 - - - - - - -
26/02:00pm 14.9 E 13 16 1026.3 - 0.0 - - - - - - -
26/01:30pm 15.0 E 13 16 1026.5 - 0.0 - - - - - - -
26/01:00pm 15.3 E 11 15 1026.5 - 0.0 - - - - - - -
26/12:30pm 15.4 E 10 13 1027.1 - 0.0 - - - - - - -
26/12:00pm 15.5 E 9 13 1027.7 - 0.0 - - - - - - -
26/11:30am 13.8 E 8 11 1028.2 - 0.0 - - - - - - -
26/11:00am 14.1 E 7 9 1028.7 - 0.0 - - - - - - -
26/10:30am 13.4 E 7 10 1029.0 - 0.0 - - - - - - -
26/10:00am 13.5 ENE 9 13 1029.1 - 0.0 - - - - - - -
26/09:30am 13.2 NE 8 11 1029.2 - 0.0 - - - - - - -
26/09:00am 12.8 NE 7 9 1029.6 - 0.0 - - - - - - -
26/08:30am 12.8 E 9 11 1029.7 - 0.0 - - - - - - -
26/08:00am 12.4 E 10 12 1029.5 - 0.0 - - - - - - -
26/07:30am 12.4 E 9 12 1029.2 - 0.0 - - - - - - -
26/07:00am 11.7 E 8 10 1029.2 - 0.0 - - - - - - -
26/06:30am 11.3 E 7 9 1028.8 - 0.0 - - - - - - -
26/06:00am 11.2 E 8 10 1028.5 - 0.0 - - - - - - -
26/05:30am 11.1 E 8 12 1028.4 - 0.0 - - - - - - -
26/05:00am 10.9 ENE 8 11 1028.3 - 0.0 - - - - - - -
26/04:30am 10.4 NE 5 8 1028.4 - 0.0 - - - - - - -
26/04:00am 10.8 NE 6 8 1028.5 - 0.0 - - - - - - -
26/03:30am 11.7 NNE 6 9 1028.6 - 0.0 - - - - - - -
26/03:00am 12.4 NE 7 9 1028.6 - 0.0 - - - - - - -
26/02:30am 12.2 E 12 15 1028.7 - 0.0 - - - - - - -
26/02:00am 12.3 E 12 15 1028.8 - 0.0 - - - - - - -
26/01:30am 12.4 E 13 17 1029.0 - 0.0 - - - - - - -
26/01:00am 12.3 E 14 17 1029.1 - 0.0 - - - - - - -
26/12:30am 12.6 E 11 15 1029.2 - 0.0 - - - - - - -
26/12:00am 12.7 ESE 9 15 1029.4 - 0.0 - - - - - - -
 
Date/Time
CST
Temp

°C
Wind Pressure Rain
since 9am
mm
Weather Cloud Vis
km
Sea
Height
m
Swell
Dir
 
Speed
knots
Gust
knots
hPa Trend Height
m
Period
s
Dir
25/11:30pm 12.8 ESE 8 13 1029.7 - 0.0 - - - - - - -
25/11:00pm 12.6 ESE 8 12 1029.8 - 0.0 - - - - - - -
25/10:30pm 12.5 ESE 8 14 1029.9 - 0.0 - - - - - - -
25/10:00pm 12.4 ESE 10 14 1030.0 - 0.0 - - - - - - -
25/09:30pm 12.4 ESE 10 16 1030.0 - 0.0 - - - - - - -
25/09:00pm 12.3 ESE 9 14 1030.1 - 0.0 - - - - - - -
25/08:30pm 12.4 ESE 9 15 1030.0 - 0.0 - - - - - - -
25/08:00pm 12.3 ESE 9 14 1029.9 - 0.0 - - - - - - -
25/07:30pm 12.4 ESE 10 16 1029.8 - 0.0 - - - - - - -
25/07:00pm 12.4 ESE 9 16 1029.8 - 0.0 - - - - - - -
25/06:30pm 12.3 SE 10 14 1029.8 - 0.0 - - - - - - -
25/06:00pm 12.5 SE 9 13 1029.7 - 0.0 - - - - - - -
25/05:30pm 12.5 ESE 9 14 1029.5 - 0.0 - - - - - - -
25/05:00pm 12.8 ESE 8 14 1029.3 - 0.0 - - - - - - -
25/04:30pm 13.5 SE 8 12 1029.1 - 0.0 - - - - - - -
25/04:00pm 13.6 SE 9 12 1029.1 - 0.0 - - - - - - -
25/03:30pm 14.1 SE 8 13 1029.1 - 0.0 - - - - - - -
25/03:00pm 14.3 ESE 8 12 1029.0 - 0.0 - - - - - - -
25/02:30pm 14.9 SE 10 13 1029.0 - 0.0 - - - - - - -
25/02:00pm 14.4 SE 10 14 1029.1 - 0.0 - - - - - - -
25/01:30pm 14.9 SSE 9 12 1029.1 - 0.0 - - - - - - -
25/01:00pm 15.1 SSE 9 12 1029.3 - 0.0 - - - - - - -
25/12:30pm 13.9 SSE 10 13 1029.5 - 0.0 - - - - - - -
25/12:00pm 13.7 SSE 10 13 1029.8 - 0.0 - - - - - - -
25/11:30am 14.7 SSE 11 13 1030.0 - 0.0 - - - - - - -
25/11:00am 14.1 SSE 10 14 1030.1 - 0.0 - - - - - - -
25/10:30am 13.5 SSE 13 16 1030.2 - 0.0 - - - - - - -

Other Formats:

Comma delimited format used in spreadsheet applications
http://www.bom.gov.au/fwo/IDS60701/IDS60701.94826.axf

JavaScript Object Notation format (JSON) in row-major order
http://www.bom.gov.au/fwo/IDS60701/IDS60701.94826.json